Wausau Downtown Airport
KAUW : rendu visible

Aérodrome :











RETROUVEZ-NOUS SUR...

 
LOGIN :

S'inscrire | Disclaimer

   EN    FR    IT 

 









Légende :    VFR   VFR Marginal   IFR   IFR Intensif   IFR Très Intensif
Visi : 
Plafond : 
>= 8 km
>= 3000ft
5 à 8 km
1000 à 3000 ft
1500m à 5 km
500 à 1000 ft
800 à 1500m
200 à 500 ft
< 800m
< 200 ft
Symboles :   Orages  Brouillard  Fortes neiges  Fortes précipitations  Vent > 20 kt






- Altitude de l'aérodrome : 1201 ft


KAUW - Wausau Downtown

DERNIER METAR :
  • 151454Z AUTO 31004KT 10SM BKN010 M16/M18 A3002 RMK AO2 SNB17E26 SLP199 P0000 60000 T11611178 51016

METARs EXPIRÉS :
  • 151354Z AUTO 28006KT 10SM OVC007 M16/M17 A3002 RMK AO2 SLP196 T11561167
  • 151254Z AUTO 30006KT 10SM OVC008 M16/M17 A2999 RMK AO2 SLP187 T11561172
  • 151154Z AUTO 34004KT 10SM OVC009 M17/M18 A2997 RMK AO2 SLP181 I1000 I6000 T11671183 11144 21178 50010

TAF KAUW
Valide du 15 à 13h jusqu'au 16 à 12h UTC


151253Z 1513/1612 30005KT P6SM -SHSN BKN009
TEMPO 1514/1516 BKN012
FM151600 27004KT P6SM SKC
FM160200 25003KT P6SM BKN040 BKN080
FM161000 26004KT P6SM BKN018



MET'MAP, la Météo Aéronautique d'un coup d'oeil ! - Copyright ORBIFLY Décembre 2007 - Disclaimer

ORBIFLY MET'MAP TEAM :

Programmation & Développement : Alexandra Zaïnal
Sur une idée originale de : Baudouin d'Aumeries
Assistance à la programmation : Marc-Olivier Méhu
Soutien technique & logistique : Manuel Goepfert

Contact : metmap@orbifly.com




SOURCES & CREDITS :

   NOAA       Earth
Advisory